createdAt,value
2023-09-27T00:02:00.381Z,99512.56
2023-09-27T00:04:26.988Z,99501.66
2023-09-27T00:06:53.691Z,99505.19
2023-09-27T00:09:21.503Z,99501.16
2023-09-27T00:11:48.035Z,99506.78
2023-09-27T00:14:14.622Z,99507.78
2023-09-27T00:16:41.187Z,99506.22
2023-09-27T00:19:07.657Z,99507.31
2023-09-27T00:21:34.126Z,99506.53
2023-09-27T00:24:00.579Z,99507.03
2023-09-27T00:26:28.414Z,99498.84
2023-09-27T00:28:55.373Z,99495.84
2023-09-27T00:31:22.326Z,99495.34
2023-09-27T00:33:48.818Z,99496.94
2023-09-27T00:36:15.260Z,99496.78
2023-09-27T00:38:41.714Z,99496.78
2023-09-27T00:41:08.768Z,99493.59
2023-09-27T00:43:36.532Z,99497.78
2023-09-27T00:46:06.022Z,99505.16
2023-09-27T00:48:34.226Z,99512.84
2023-09-27T00:51:01.848Z,99514.28
2023-09-27T00:53:32.637Z,99513.81
2023-09-27T00:55:59.342Z,99511.44
2023-09-27T00:58:26.644Z,99499.25
2023-09-27T01:00:55.310Z,99492.97
2023-09-27T01:03:21.783Z,99484.97
2023-09-27T01:05:48.636Z,99488.34
2023-09-27T01:08:15.185Z,99491.72
2023-09-27T01:10:42.292Z,99497.97
2023-09-27T01:13:09.005Z,99496.69
2023-09-27T01:15:35.504Z,99509.03
2023-09-27T01:18:04.190Z,99509.66
2023-09-27T01:20:32.544Z,99523.59
2023-09-27T01:23:01.527Z,99519.28
2023-09-27T01:25:29.155Z,99512.56
2023-09-27T01:27:55.670Z,99519.13
2023-09-27T01:30:22.267Z,99516.25
2023-09-27T01:32:48.806Z,99509.38
2023-09-27T01:35:15.472Z,99506.97
2023-09-27T01:37:41.919Z,99495.91
2023-09-27T01:40:11.041Z,99497.34
2023-09-27T01:42:37.495Z,99486.59
2023-09-27T01:45:04.495Z,99499.28
2023-09-27T01:47:31.026Z,99501.03
2023-09-27T01:49:57.508Z,99503.44
2023-09-27T01:52:23.950Z,99502.16
2023-09-27T01:54:50.410Z,99491.09
2023-09-27T01:57:18.181Z,99490.31
2023-09-27T01:59:44.632Z,99489.66
2023-09-27T02:02:11.078Z,99495.59
2023-09-27T02:04:37.564Z,99493.19
2023-09-27T02:07:04.440Z,99487.09
2023-09-27T02:09:30.902Z,99498.94
2023-09-27T02:11:57.458Z,99496.06
2023-09-27T02:14:25.254Z,99507.56
2023-09-27T02:16:51.859Z,99501.63
2023-09-27T02:19:18.416Z,99497.81
2023-09-27T02:21:44.865Z,99491.41
2023-09-27T02:24:11.412Z,99487.88
2023-09-27T02:26:37.864Z,99493.66
2023-09-27T02:29:04.366Z,99492.16
2023-09-27T02:31:32.144Z,99490.56
2023-09-27T02:33:58.670Z,99499.84
2023-09-27T02:36:25.166Z,99498.25
2023-09-27T02:38:51.764Z,99496.63
2023-09-27T02:41:18.594Z,99503.69
2023-09-27T02:43:45.045Z,99499.84
2023-09-27T02:46:11.575Z,99507.66
2023-09-27T02:48:39.388Z,99507.84
2023-09-27T02:51:05.993Z,99510.06
2023-09-27T02:53:32.454Z,99511.53
2023-09-27T02:55:59.067Z,99514.38
2023-09-27T02:58:25.570Z,99516.91
2023-09-27T03:00:52.182Z,99520.59
2023-09-27T03:03:18.869Z,99529.69
2023-09-27T03:05:46.692Z,99537.38
2023-09-27T03:08:13.181Z,99547.75
2023-09-27T03:10:39.893Z,99542.63
2023-09-27T03:13:06.643Z,99535.91
2023-09-27T03:15:33.107Z,99540.88
2023-09-27T03:17:59.770Z,99539.56
2023-09-27T03:20:26.506Z,99542.91
2023-09-27T03:22:54.370Z,99546.28
2023-09-27T03:25:20.924Z,99549.63
2023-09-27T03:27:47.763Z,99551.03
2023-09-27T03:30:14.864Z,99547.97
2023-09-27T03:32:41.493Z,99547.31
2023-09-27T03:35:09.334Z,99553.84
2023-09-27T03:37:35.881Z,99546.81
2023-09-27T03:40:04.917Z,99549.84
2023-09-27T03:42:31.388Z,99554.47
2023-09-27T03:44:57.921Z,99563.53
2023-09-27T03:47:24.461Z,99562.06
2023-09-27T03:49:51.115Z,99572.78
2023-09-27T03:52:17.553Z,99582.22
2023-09-27T03:54:44.160Z,99581.28
2023-09-27T03:57:11.968Z,99579.69
2023-09-27T03:59:38.470Z,99574.25
2023-09-27T04:02:05.091Z,99569.63
2023-09-27T04:04:31.945Z,99575.66
2023-09-27T04:06:58.426Z,99569.44
2023-09-27T04:09:24.896Z,99568.47
2023-09-27T04:11:51.529Z,99565.56
2023-09-27T04:14:19.350Z,99561.53
2023-09-27T04:16:45.835Z,99559.91
2023-09-27T04:19:12.615Z,99549.19
2023-09-27T04:21:39.043Z,99550.59
2023-09-27T04:24:06.271Z,99543.91
2023-09-27T04:26:32.829Z,99532.84
2023-09-27T04:28:59.369Z,99522.28
2023-09-27T04:31:27.268Z,99516.53
2023-09-27T04:33:53.710Z,99520.56
2023-09-27T04:36:20.199Z,99524.25
2023-09-27T04:38:47.439Z,99518.69
2023-09-27T04:41:14.087Z,99533.44
2023-09-27T04:43:40.853Z,99527.19
2023-09-27T04:46:07.336Z,99518.25
2023-09-27T04:48:35.187Z,99510.69
2023-09-27T04:51:02.892Z,99516.13
2023-09-27T04:53:29.387Z,99521.72
2023-09-27T04:55:56.041Z,99523.44
2023-09-27T04:58:22.495Z,99525.66
2023-09-27T05:00:49.013Z,99529.31
2023-09-27T05:03:15.517Z,99526.09
2023-09-27T05:05:43.558Z,99531.22
2023-09-27T05:08:10.138Z,99531.22
2023-09-27T05:10:36.587Z,99540.53
2023-09-27T05:13:03.484Z,99533.81
2023-09-27T05:15:30.084Z,99531.41
2023-09-27T05:17:56.540Z,99524.19
2023-09-27T05:20:23.111Z,99540.38
2023-09-27T05:22:50.927Z,99540.38
2023-09-27T05:25:17.424Z,99547.72
2023-09-27T05:27:44.168Z,99546.91
2023-09-27T05:30:11.473Z,99548.84
2023-09-27T05:32:38.450Z,99545.81
2023-09-27T05:35:05.823Z,99549.13
2023-09-27T05:37:32.574Z,99555.69
2023-09-27T05:40:00.383Z,99570.97
2023-09-27T05:42:28.412Z,99566.97
2023-09-27T05:44:54.944Z,99568.91
2023-09-27T05:47:21.459Z,99566.69
2023-09-27T05:49:48.086Z,99562.66
2023-09-27T05:52:14.505Z,99564.28
2023-09-27T05:54:41.052Z,99569.56
2023-09-27T05:57:08.832Z,99572.97
2023-09-27T05:59:35.339Z,99575.25
2023-09-27T06:02:01.944Z,99578.03
2023-09-27T06:04:28.416Z,99577.78
2023-09-27T06:06:54.910Z,99576.72
2023-09-27T06:09:21.393Z,99579.47
2023-09-27T06:11:47.909Z,99576.13
2023-09-27T06:14:15.974Z,99579.03
2023-09-27T06:16:42.486Z,99579.88
2023-09-27T06:19:09.104Z,99571.25
2023-09-27T06:21:35.539Z,99568.91
2023-09-27T06:24:02.048Z,99572.31
2023-09-27T06:26:28.947Z,99567.38
2023-09-27T06:28:55.504Z,99564.41
2023-09-27T06:31:23.814Z,99571.16
2023-09-27T06:33:50.471Z,99571.63
2023-09-27T06:36:16.915Z,99571.00
2023-09-27T06:38:44.941Z,99572.44
2023-09-27T06:41:11.817Z,99574.53
2023-09-27T06:43:38.369Z,99564.78
2023-09-27T06:46:09.197Z,99564.78
2023-09-27T06:48:37.518Z,99567.19
2023-09-27T06:51:04.022Z,99573.13
2023-09-27T06:53:33.558Z,99575.69
2023-09-27T06:56:00.724Z,99572.03
2023-09-27T06:58:27.256Z,99568.16
2023-09-27T07:00:53.979Z,99571.69
2023-09-27T07:03:20.563Z,99569.56
2023-09-27T07:05:48.481Z,99566.19
2023-09-27T07:08:15.136Z,99556.88
2023-09-27T07:10:41.736Z,99568.69
2023-09-27T07:13:08.294Z,99572.50
2023-09-27T07:15:34.850Z,99564.94
2023-09-27T07:18:01.550Z,99579.63
2023-09-27T07:20:28.190Z,99567.53
2023-09-27T07:22:56.143Z,99562.66
2023-09-27T07:25:23.397Z,99564.31
2023-09-27T07:27:50.296Z,99563.22
2023-09-27T07:30:17.142Z,99569.75
2023-09-27T07:32:43.834Z,99577.09
2023-09-27T07:35:10.457Z,99559.16
2023-09-27T07:37:37.196Z,99569.28
2023-09-27T07:40:07.958Z,99568.41
2023-09-27T07:42:35.042Z,99573.00
2023-09-27T07:45:02.248Z,99565.94
2023-09-27T07:47:28.977Z,99568.59
2023-09-27T07:49:55.476Z,99562.66
2023-09-27T07:52:21.904Z,99558.63
2023-09-27T07:54:48.451Z,99559.41
2023-09-27T07:57:16.218Z,99552.91
2023-09-27T07:59:42.692Z,99553.19
2023-09-27T08:02:09.217Z,99546.56
2023-09-27T08:04:35.788Z,99553.91
2023-09-27T08:07:02.273Z,99550.97
2023-09-27T08:12:01.794Z,99548.84
2023-09-27T08:14:29.590Z,99539.16
2023-09-27T08:16:56.097Z,99544.06
2023-09-27T08:19:22.698Z,99549.19
2023-09-27T08:21:49.125Z,99551.03
2023-09-27T08:24:15.657Z,99536.16
2023-09-27T08:26:42.864Z,99541.09
2023-09-27T08:29:10.351Z,99534.78
2023-09-27T08:31:38.136Z,99538.34
2023-09-27T08:34:04.965Z,99530.53
2023-09-27T08:36:31.491Z,99538.78
2023-09-27T08:38:58.067Z,99546.91
2023-09-27T08:41:25.142Z,99546.53
2023-09-27T08:43:53.310Z,99548.84
2023-09-27T08:46:21.856Z,99547.41
2023-09-27T08:48:50.701Z,99552.41
2023-09-27T08:51:17.368Z,99560.59
2023-09-27T08:53:43.927Z,99556.22
2023-09-27T08:56:12.252Z,99549.00
2023-09-27T08:58:40.919Z,99544.75
2023-09-27T09:01:07.423Z,99539.31
2023-09-27T09:03:34.134Z,99540.72
2023-09-27T09:06:02.423Z,99551.88
2023-09-27T09:08:42.646Z,99553.31
2023-09-27T09:11:12.045Z,99546.38
2023-09-27T09:13:54.965Z,99551.81
2023-09-27T09:16:21.873Z,99550.69
2023-09-27T09:18:48.366Z,99551.44
2023-09-27T09:21:16.249Z,99552.50
2023-09-27T09:23:42.739Z,99545.81
2023-09-27T09:26:10.144Z,99543.59
2023-09-27T09:28:53.131Z,99537.66
2023-09-27T09:31:22.706Z,99540.31
2023-09-27T09:34:02.662Z,99540.16
2023-09-27T09:36:30.507Z,99538.22
2023-09-27T09:39:04.106Z,99533.22
2023-09-27T09:41:44.246Z,99527.47
2023-09-27T09:44:17.817Z,99528.97
2023-09-27T09:46:44.504Z,99519.44
2023-09-27T09:49:10.935Z,99515.72
2023-09-27T09:51:41.218Z,99519.34
2023-09-27T09:54:08.917Z,99522.00
2023-09-27T09:56:50.039Z,99527.41
2023-09-27T09:59:26.686Z,99531.78
2023-09-27T10:01:57.123Z,99535.34
2023-09-27T10:04:25.132Z,99539.22
2023-09-27T10:06:54.594Z,99545.41
2023-09-27T10:09:21.623Z,99546.47
2023-09-27T10:11:49.484Z,99543.88
2023-09-27T10:14:18.383Z,99546.91
2023-09-27T10:16:45.890Z,99543.94
2023-09-27T10:19:12.403Z,99536.53
2023-09-27T10:22:03.012Z,99528.59
2023-09-27T10:24:29.518Z,99533.75
2023-09-27T10:26:55.980Z,99531.78
2023-09-27T10:29:22.483Z,99531.41
2023-09-27T10:32:22.316Z,99527.00
2023-09-27T10:34:50.882Z,99524.22
2023-09-27T10:37:57.234Z,99526.25
2023-09-27T10:40:23.697Z,99522.25
2023-09-27T10:42:50.300Z,99519.78
2023-09-27T10:45:17.194Z,99516.84
2023-09-27T10:47:43.877Z,99521.66
2023-09-27T10:50:10.960Z,99521.03
2023-09-27T10:52:39.234Z,99525.03
2023-09-27T10:55:12.933Z,99515.94
2023-09-27T10:57:41.356Z,99514.28
2023-09-27T11:00:08.230Z,99507.72
2023-09-27T11:02:34.769Z,99511.84
2023-09-27T11:05:01.326Z,99517.06
2023-09-27T11:10:36.063Z,99509.69
2023-09-27T11:13:10.101Z,99506.47
2023-09-27T11:15:36.799Z,99507.84
2023-09-27T11:18:03.845Z,99492.78
2023-09-27T11:20:30.680Z,99493.81
2023-09-27T11:22:57.860Z,99492.38
2023-09-27T11:25:27.537Z,99494.75
2023-09-27T11:27:56.226Z,99492.34
2023-09-27T11:30:26.686Z,99486.97
2023-09-27T11:32:53.603Z,99488.81
2023-09-27T11:35:20.320Z,99481.06
2023-09-27T11:37:47.081Z,99464.97
2023-09-27T11:40:13.515Z,99459.28
2023-09-27T11:42:40.137Z,99446.78
2023-09-27T11:45:10.177Z,99449.56
2023-09-27T11:47:46.453Z,99443.88
2023-09-27T11:50:13.246Z,99442.88
2023-09-27T11:52:39.708Z,99438.44
2023-09-27T11:55:06.848Z,99438.31
2023-09-27T11:57:33.298Z,99428.53
2023-09-27T11:59:59.721Z,99425.63
2023-09-27T12:02:31.101Z,99417.78
2023-09-27T12:05:01.880Z,99414.69
2023-09-27T12:07:29.013Z,99404.19
2023-09-27T12:09:56.062Z,99401.66
2023-09-27T12:12:22.759Z,99404.97
2023-09-27T12:14:49.253Z,99394.00
2023-09-27T12:17:15.858Z,99396.34
2023-09-27T12:19:43.690Z,99385.31
2023-09-27T12:22:10.345Z,99389.28
2023-09-27T12:24:36.770Z,99379.47
2023-09-27T12:27:03.359Z,99371.94
2023-09-27T12:29:30.694Z,99367.00
2023-09-27T12:31:57.345Z,99362.78
2023-09-27T12:34:23.933Z,99358.91
2023-09-27T12:36:51.718Z,99356.19
2023-09-27T12:39:20.838Z,99348.31
2023-09-27T12:41:47.490Z,99338.69
2023-09-27T12:44:22.153Z,99349.56
2023-09-27T12:46:49.332Z,99353.91
2023-09-27T12:49:15.903Z,99346.72
2023-09-27T12:51:49.488Z,99335.81
2023-09-27T12:54:17.912Z,99332.78
2023-09-27T12:56:44.458Z,99328.25
2023-09-27T12:59:11.407Z,99329.53
2023-09-27T13:01:40.513Z,99320.09
2023-09-27T13:04:07.567Z,99322.47
2023-09-27T13:06:34.101Z,99320.78
2023-09-27T13:09:00.673Z,99309.22
2023-09-27T13:11:28.498Z,99306.53
2023-09-27T13:13:54.990Z,99318.66
2023-09-27T13:16:21.571Z,99306.22
2023-09-27T13:18:48.005Z,99310.25
2023-09-27T13:21:14.447Z,99314.34
2023-09-27T13:23:41.252Z,99302.84
2023-09-27T13:26:07.927Z,99301.22
2023-09-27T13:28:35.743Z,99295.16
2023-09-27T13:31:02.393Z,99289.50
2023-09-27T13:33:28.915Z,99287.91
2023-09-27T13:35:58.037Z,99287.63
2023-09-27T13:38:25.829Z,99291.63
2023-09-27T13:40:52.408Z,99277.72
2023-09-27T13:43:18.890Z,99281.53
2023-09-27T13:45:48.221Z,99281.34
2023-09-27T13:48:15.056Z,99276.94
2023-09-27T13:50:41.649Z,99278.91
2023-09-27T13:53:08.404Z,99262.63
2023-09-27T13:55:34.888Z,99260.69
2023-09-27T13:58:01.345Z,99264.41
2023-09-27T14:00:27.836Z,99265.69
2023-09-27T14:02:56.122Z,99263.56
2023-09-27T14:05:22.737Z,99270.66
2023-09-27T14:07:49.271Z,99263.31
2023-09-27T14:10:15.868Z,99262.00
2023-09-27T14:12:42.290Z,99261.38
2023-09-27T14:15:09.628Z,99252.69
2023-09-27T14:17:36.215Z,99262.56
2023-09-27T14:20:04.523Z,99261.50
2023-09-27T14:22:30.995Z,99259.41
2023-09-27T14:24:57.587Z,99253.69
2023-09-27T14:27:24.038Z,99253.19
2023-09-27T14:29:50.624Z,99243.31
2023-09-27T14:32:17.159Z,99242.84
2023-09-27T14:37:24.699Z,99239.41
2023-09-27T14:39:51.189Z,99239.91
2023-09-27T14:42:17.626Z,99234.13
2023-09-27T14:44:44.064Z,99228.06
2023-09-27T14:47:10.556Z,99220.28
2023-09-27T14:49:37.019Z,99226.91
2023-09-27T14:52:03.517Z,99225.16
2023-09-27T14:54:31.348Z,99215.50
2023-09-27T14:56:57.772Z,99222.09
2023-09-27T14:59:24.219Z,99212.09
2023-09-27T15:01:50.783Z,99207.66
2023-09-27T15:04:17.422Z,99209.59
2023-09-27T15:06:43.912Z,99213.03
2023-09-27T15:09:10.454Z,99210.47
2023-09-27T15:11:38.239Z,99200.06
2023-09-27T15:14:04.716Z,99203.13
2023-09-27T15:16:31.241Z,99192.91
2023-09-27T15:18:57.801Z,99193.47
2023-09-27T15:21:24.294Z,99186.03
2023-09-27T15:23:50.731Z,99190.47
2023-09-27T15:26:17.366Z,99192.59
2023-09-27T15:28:45.509Z,99185.50
2023-09-27T15:31:12.038Z,99184.38
2023-09-27T15:33:38.723Z,99189.09
2023-09-27T15:36:06.192Z,99186.13
2023-09-27T15:38:32.681Z,99188.38
2023-09-27T15:40:59.140Z,99183.31
2023-09-27T15:43:25.736Z,99173.28
2023-09-27T15:45:59.906Z,99176.88
2023-09-27T15:48:28.282Z,99161.97
2023-09-27T15:50:54.790Z,99169.84
2023-09-27T15:53:21.315Z,99160.94
2023-09-27T15:55:47.784Z,99162.59
2023-09-27T15:58:14.271Z,99162.81
2023-09-27T16:00:40.696Z,99162.22
2023-09-27T16:03:08.748Z,99161.59
2023-09-27T16:05:35.384Z,99170.91
2023-09-27T16:08:01.892Z,99160.72
2023-09-27T16:10:29.559Z,99165.28
2023-09-27T16:12:57.201Z,99167.81
2023-09-27T16:15:25.228Z,99160.66
2023-09-27T16:17:51.739Z,99169.25
2023-09-27T16:20:19.624Z,99163.59
2023-09-27T16:22:46.142Z,99166.63
2023-09-27T16:25:12.670Z,99163.72
2023-09-27T16:27:39.149Z,99153.78
2023-09-27T16:30:07.704Z,99150.50
2023-09-27T16:32:34.914Z,99156.19
2023-09-27T16:35:01.579Z,99153.63
2023-09-27T16:37:29.479Z,99153.69
2023-09-27T16:39:55.929Z,99151.03
2023-09-27T16:42:22.439Z,99153.88
2023-09-27T16:44:48.910Z,99155.25
2023-09-27T16:47:15.326Z,99148.66
2023-09-27T16:49:41.779Z,99153.88
2023-09-27T16:52:08.213Z,99143.47
2023-09-27T16:54:36.101Z,99150.84
2023-09-27T16:57:02.583Z,99149.06
2023-09-27T16:59:29.090Z,99150.38
2023-09-27T17:01:55.662Z,99148.50
2023-09-27T17:04:22.213Z,99155.72
2023-09-27T17:06:48.692Z,99152.97
2023-09-27T17:09:15.124Z,99159.75
2023-09-27T17:11:43.087Z,99156.59
2023-09-27T17:14:09.555Z,99164.91
2023-09-27T17:16:36.174Z,99162.91
2023-09-27T17:19:02.714Z,99166.00
2023-09-27T17:21:29.210Z,99169.94
2023-09-27T17:23:56.312Z,99171.09
2023-09-27T17:26:23.023Z,99187.22
2023-09-27T17:28:52.117Z,99181.66
2023-09-27T17:31:18.864Z,99183.19
2023-09-27T17:33:45.368Z,99188.25
2023-09-27T17:36:11.877Z,99195.25
2023-09-27T17:38:38.340Z,99186.06
2023-09-27T17:41:04.814Z,99197.44
2023-09-27T17:43:31.242Z,99200.53
2023-09-27T17:45:59.078Z,99201.22
2023-09-27T17:48:25.569Z,99200.75
2023-09-27T17:50:52.072Z,99206.06
2023-09-27T17:53:18.642Z,99204.00
2023-09-27T17:55:45.206Z,99207.38
2023-09-27T17:58:12.075Z,99204.50
2023-09-27T18:00:38.569Z,99202.38
2023-09-27T18:03:06.678Z,99203.38
2023-09-27T18:05:33.203Z,99198.06
2023-09-27T18:07:59.676Z,99203.88
2023-09-27T18:10:26.349Z,99200.56
2023-09-27T18:12:52.963Z,99206.31
2023-09-27T18:15:27.774Z,99204.72
2023-09-27T18:17:55.174Z,99207.38
2023-09-27T18:20:23.062Z,99198.22
2023-09-27T18:22:49.546Z,99199.66
2023-09-27T18:25:16.337Z,99196.31
2023-09-27T18:27:42.813Z,99199.78
2023-09-27T18:30:10.130Z,99196.91
2023-09-27T18:32:36.625Z,99193.63
2023-09-27T18:35:03.520Z,99201.69
2023-09-27T18:37:31.364Z,99204.41
2023-09-27T18:39:57.842Z,99202.69
2023-09-27T18:42:24.302Z,99208.81
2023-09-27T18:44:50.779Z,99212.94
2023-09-27T18:47:17.331Z,99206.94
2023-09-27T18:49:43.911Z,99205.22
2023-09-27T18:52:10.390Z,99204.38
2023-09-27T18:54:38.160Z,99200.78
2023-09-27T18:57:04.639Z,99190.53
2023-09-27T18:59:31.100Z,99196.31
2023-09-27T19:01:57.781Z,99197.34
2023-09-27T19:04:24.314Z,99192.06
2023-09-27T19:06:50.766Z,99188.03
2023-09-27T19:09:17.223Z,99190.69
2023-09-27T19:11:45.007Z,99186.31
2023-09-27T19:14:11.617Z,99184.72
2023-09-27T19:16:38.100Z,99184.56
2023-09-27T19:19:04.804Z,99177.84
2023-09-27T19:21:31.248Z,99179.34
2023-09-27T19:23:57.729Z,99182.78
2023-09-27T19:26:24.165Z,99180.34
2023-09-27T19:28:52.029Z,99168.47
2023-09-27T19:31:18.515Z,99163.66
2023-09-27T19:33:45.016Z,99163.22
2023-09-27T19:36:13.717Z,99169.34
2023-09-27T19:38:40.135Z,99171.66
2023-09-27T19:41:06.734Z,99162.22
2023-09-27T19:43:33.229Z,99172.66
2023-09-27T19:46:01.040Z,99169.47
2023-09-27T19:48:27.622Z,99161.19
2023-09-27T19:50:54.181Z,99158.34
2023-09-27T19:53:20.591Z,99155.13
2023-09-27T19:55:47.119Z,99157.31
2023-09-27T19:58:13.660Z,99157.97
2023-09-27T20:00:40.517Z,99159.84
2023-09-27T20:03:08.333Z,99157.47
2023-09-27T20:05:34.827Z,99158.88
2023-09-27T20:08:01.344Z,99164.19
2023-09-27T20:10:27.874Z,99158.91
2023-09-27T20:12:54.368Z,99167.41
2023-09-27T20:15:20.816Z,99153.16
2023-09-27T20:17:47.369Z,99164.13
2023-09-27T20:20:15.321Z,99163.69
2023-09-27T20:22:41.789Z,99161.66
2023-09-27T20:25:09.363Z,99160.41
2023-09-27T20:27:35.789Z,99158.72
2023-09-27T20:30:02.938Z,99159.06
2023-09-27T20:32:29.530Z,99166.41
2023-09-27T20:34:56.120Z,99172.94
2023-09-27T20:37:24.106Z,99169.31
2023-09-27T20:39:50.559Z,99168.44
2023-09-27T20:42:16.997Z,99181.34
2023-09-27T20:44:43.465Z,99169.84
2023-09-27T20:47:09.969Z,99175.25
2023-09-27T20:49:36.510Z,99169.66
2023-09-27T20:52:03.087Z,99169.94
2023-09-27T20:54:30.863Z,99170.50
2023-09-27T20:56:57.326Z,99162.22
2023-09-27T20:59:23.822Z,99163.25
2023-09-27T21:01:50.306Z,99162.41
2023-09-27T21:04:16.918Z,99162.28
2023-09-27T21:06:43.680Z,99168.44
2023-09-27T21:09:10.176Z,99164.38
2023-09-27T21:11:37.994Z,99158.72
2023-09-27T21:14:04.803Z,99155.41
2023-09-27T21:16:32.789Z,99150.56
2023-09-27T21:19:00.165Z,99149.69
2023-09-27T21:21:26.625Z,99147.28
2023-09-27T21:23:53.797Z,99147.19
2023-09-27T21:26:20.899Z,99144.25
2023-09-27T21:28:48.857Z,99146.88
2023-09-27T21:31:15.804Z,99137.66
2023-09-27T21:33:43.056Z,99141.88
2023-09-27T21:36:09.760Z,99139.06
2023-09-27T21:38:36.548Z,99128.31
2023-09-27T21:41:03.180Z,99134.03
2023-09-27T21:43:30.781Z,99125.97
2023-09-27T21:45:58.954Z,99125.06
2023-09-27T21:48:25.450Z,99124.19
2023-09-27T21:50:52.002Z,99110.75
2023-09-27T21:53:18.572Z,99115.78
2023-09-27T21:55:45.031Z,99115.31
2023-09-27T21:58:11.687Z,99112.13
2023-09-27T22:00:38.219Z,99109.75
2023-09-27T22:03:06.412Z,99106.22
2023-09-27T22:05:33.454Z,99103.47
2023-09-27T22:08:00.892Z,99107.34
2023-09-27T22:10:28.601Z,99099.06
2023-09-27T22:12:55.099Z,99088.94
2023-09-27T22:15:22.648Z,99084.94
2023-09-27T22:17:49.127Z,99087.22
2023-09-27T22:20:16.984Z,99082.78
2023-09-27T22:22:43.505Z,99085.88
2023-09-27T22:25:10.160Z,99070.50
2023-09-27T22:27:36.648Z,99077.88
2023-09-27T22:30:03.445Z,99080.28
2023-09-27T22:32:29.937Z,99076.75
2023-09-27T22:34:56.444Z,99075.16
2023-09-27T22:37:24.295Z,99080.19
2023-09-27T22:39:52.997Z,99079.81
2023-09-27T22:42:24.665Z,99069.59
2023-09-27T22:44:51.158Z,99080.88
2023-09-27T22:47:17.629Z,99077.81
2023-09-27T22:49:44.168Z,99085.28
2023-09-27T22:52:10.824Z,99085.53
2023-09-27T22:54:38.647Z,99086.22
2023-09-27T22:57:05.208Z,99088.84
2023-09-27T22:59:32.094Z,99086.47
2023-09-27T23:01:58.563Z,99073.94
2023-09-27T23:04:25.163Z,99076.53
2023-09-27T23:06:51.665Z,99070.66
2023-09-27T23:09:18.093Z,99065.88
2023-09-27T23:11:45.979Z,99071.66
2023-09-27T23:14:12.531Z,99073.13
2023-09-27T23:16:39.026Z,99064.84
2023-09-27T23:19:05.660Z,99056.88
2023-09-27T23:21:32.758Z,99054.06
2023-09-27T23:23:59.689Z,99053.13
2023-09-27T23:26:30.580Z,99051.19
2023-09-27T23:28:58.416Z,99060.06
2023-09-27T23:31:24.898Z,99054.97
2023-09-27T23:33:51.484Z,99062.25
2023-09-27T23:36:18.120Z,99058.13
2023-09-27T23:38:44.562Z,99070.97
2023-09-27T23:41:11.047Z,99062.38
2023-09-27T23:43:37.526Z,99064.28
2023-09-27T23:46:05.453Z,99065.53
2023-09-27T23:48:31.881Z,99073.63
2023-09-27T23:50:58.293Z,99068.16
2023-09-27T23:53:24.847Z,99066.09
2023-09-27T23:55:51.367Z,99066.09
2023-09-27T23:58:17.823Z,99068.03
